Flight Number: EUR3022 Duration: 11:00
Departure: Moscow Sheremetyevo (UUEE) at 08:00 Distance: 4386 Nm
Arrival: Indianapolis Intl Airport (KIND) at 19:00 Equipment: B777

Weather Information
Moscow / Sheremet'Ye , Russia (UUEE) 55-59N 037-30E Sep 21, 2017 - 10:00 AM EDT / 2017.09.21 1400 UTC
Wind: from the E (090 degrees) at 16 MPH (14 KT):0
Visibility: greater than 7 mile(s):0 Temperature: 57 F (14 C) Dew Point: 50 F (10 C) Relative Humidity: 76% Pressure (altimeter): 30.33 in. Hg (1027 hPa)
ob: UUEE 211400Z 09007MPS CAVOK 14/10 Q1027 R06L/CLRD62 R06R/CLRD62 NOSIG cycle: 14
Sunrise: 03:18 Sunset: 15:27 (UTC)

INDIANAPOLIS INTERNATIONAL AIRPORT , IN, United States (KIND) 39-43N 86-17W 242M Sep 21, 2017 - 09:54 AM EDT / 2017.09.21 1354 UTC
Wind: from the S (190 degrees) at 5 MPH (4 KT):0
Visibility: 10 mile(s):0
Sky conditions: mostly cloudy Temperature: 75.9 F (24.4 C) Dew Point: 71.1 F (21.7 C) Relative Humidity: 84% Pressure (altimeter): 30.1 in. Hg (1019 hPa)
ob: KIND 211354Z 19004KT 10SM BKN045 BKN250 24/22 A3010 RMK AO2 SLP187 T02440217 cycle: 14
Sunrise: 11:35 Sunset: 23:40 (UTC)

TAF:2017/09/21 14:10 TAF AMD KIND 211409Z 2114/2218 20004KT P6SM SCT040 BKN250 FM221000 00000KT P6SM SCT150 FM221200 00000KT P6SM SCT045

This route has never been flown.

Route map